Time;durP1;ratioP1;P1;durP2;ratioP2;P2;SDS_P1;SDS_P2;PMS_P1;PMS_P2;Temp;Humidity;BMP_temperature;BMP_pressure;BME280_temperature;BME280_humidity;BME280_pressure;Samples;Min_cycle;Max_cycle;Signal;HPM_P1;HPM_P2
2022/07/01 00:02:24;;;;;;;6.97;1.83;;;;;;;;;;5035989;28;20029;-90
2022/07/01 00:04:50;;;;;;;5.72;2.03;;;;;;;;;;5033554;28;20017;-90
2022/07/01 00:07:16;;;;;;;7.70;2.05;;;;;;;;;;5037349;28;20107;-89
2022/07/01 00:09:43;;;;;;;7.15;1.40;;;;;;;;;;5036281;28;20384;-89
2022/07/01 00:12:09;;;;;;;6.97;2.03;;;;;;;;;;5044481;28;20028;-90
2022/07/01 00:14:35;;;;;;;3.72;1.60;;;;;;;;;;5040227;28;20033;-90
2022/07/01 00:17:01;;;;;;;7.47;1.80;;;;;;;;;;5037992;28;20033;-90
2022/07/01 00:19:27;;;;;;;3.83;1.70;;;;;;;;;;5040162;28;20120;-90
2022/07/01 00:21:53;;;;;;;9.45;1.60;;;;;;;;;;5043559;28;20115;-90
2022/07/01 00:24:22;;;;;;;11.82;2.10;;;;;;;;;;5041452;28;20472;-91
2022/07/01 00:26:47;;;;;;;6.15;1.75;;;;;;;;;;5039080;28;20036;-90
2022/07/01 00:29:13;;;;;;;10.80;1.85;;;;;;;;;;5032650;28;20033;-90
2022/07/01 00:31:39;;;;;;;9.15;1.95;;;;;;;;;;5032114;28;21164;-91
2022/07/01 00:34:05;;;;;;;4.57;1.77;;;;;;;;;;5021645;28;20033;-90
2022/07/01 00:36:32;;;;;;;7.18;1.83;;;;;;;;;;5018071;28;20033;-89
2022/07/01 00:39:01;;;;;;;5.93;1.30;;;;;;;;;;5019342;28;20116;-90
2022/07/01 00:41:27;;;;;;;4.75;1.10;;;;;;;;;;5018696;28;20122;-90
2022/07/01 00:43:53;;;;;;;8.25;1.73;;;;;;;;;;5019187;28;20029;-90
2022/07/01 00:46:19;;;;;;;1.98;0.88;;;;;;;;;;5022473;28;20380;-88
2022/07/01 00:48:46;;;;;;;6.53;1.77;;;;;;;;;;5014445;28;20040;-90
2022/07/01 00:51:12;;;;;;;9.32;2.00;;;;;;;;;;5018556;28;20082;-89
2022/07/01 00:53:38;;;;;;;4.68;1.65;;;;;;;;;;5017563;28;20033;-88
2022/07/01 00:56:04;;;;;;;4.78;1.83;;;;;;;;;;5016051;28;20187;-90
2022/07/01 00:58:30;;;;;;;12.68;3.03;;;;;;;;;;5018018;28;20022;-91
2022/07/01 01:00:58;;;;;;;4.85;2.17;;;;;;;;;;5027736;28;20546;-90
2022/07/01 01:03:24;;;;;;;7.03;2.35;;;;;;;;;;5031818;28;20033;-90
2022/07/01 01:05:50;;;;;;;7.80;2.35;;;;;;;;;;5016994;28;20040;-90
2022/07/01 01:08:16;;;;;;;9.30;2.20;;;;;;;;;;5017114;28;20030;-90
2022/07/01 01:10:43;;;;;;;11.88;2.20;;;;;;;;;;5017736;28;20501;-90
2022/07/01 01:13:09;;;;;;;9.80;3.78;;;;;;;;;;5024133;28;20033;-90
2022/07/01 01:15:37;;;;;;;2.38;1.23;;;;;;;;;;5017147;28;20473;-91
2022/07/01 01:18:03;;;;;;;4.93;2.30;;;;;;;;;;5037961;28;20031;-89
2022/07/01 01:20:36;;;;;;;11.05;2.90;;;;;;;;;;5019818;28;20132;-90
2022/07/01 01:23:09;;;;;;;3.80;2.03;;;;;;;;;;5023266;28;20029;-90
2022/07/01 01:25:35;;;;;;;5.63;1.58;;;;;;;;;;5024867;28;20040;-91
2022/07/01 01:28:02;;;;;;;8.60;2.40;;;;;;;;;;5019086;28;20049;-90
2022/07/01 01:30:28;;;;;;;7.97;1.45;;;;;;;;;;5001098;28;20429;-91
2022/07/01 01:32:54;;;;;;;2.75;2.05;;;;;;;;;;5009759;28;20091;-91
2022/07/01 01:35:26;;;;;;;3.20;1.70;;;;;;;;;;5020156;28;20038;-89
2022/07/01 01:37:52;;;;;;;6.65;2.05;;;;;;;;;;5016152;28;20032;-90
2022/07/01 01:40:18;;;;;;;3.13;1.73;;;;;;;;;;5020392;28;20442;-90
2022/07/01 01:42:44;;;;;;;4.05;1.73;;;;;;;;;;5023215;28;20420;-89
2022/07/01 01:45:11;;;;;;;2.13;1.60;;;;;;;;;;5035891;28;20041;-91
2022/07/01 01:47:37;;;;;;;5.72;1.42;;;;;;;;;;5039885;28;20037;-90
2022/07/01 01:50:05;;;;;;;6.18;1.70;;;;;;;;;;5037566;28;20711;-90
2022/07/01 01:52:31;;;;;;;6.05;1.90;;;;;;;;;;5039863;28;20029;-89
2022/07/01 01:54:57;;;;;;;4.60;2.40;;;;;;;;;;5036657;28;20523;-90
2022/07/01 01:57:23;;;;;;;7.32;1.70;;;;;;;;;;5055124;28;20045;-90
2022/07/01 01:59:49;;;;;;;8.05;1.90;;;;;;;;;;5042441;28;20024;-91
2022/07/01 02:02:15;;;;;;;4.70;2.20;;;;;;;;;;5039229;28;20120;-90
2022/07/01 02:04:41;;;;;;;9.02;3.15;;;;;;;;;;5061390;28;20026;-90
2022/07/01 02:07:07;;;;;;;3.10;1.77;;;;;;;;;;5043104;28;20135;-90
2022/07/01 02:09:33;;;;;;;7.07;1.98;;;;;;;;;;5036215;28;20032;-89
2022/07/01 02:11:59;;;;;;;6.15;1.83;;;;;;;;;;5045127;28;20104;-90
2022/07/01 02:14:25;;;;;;;3.33;1.90;;;;;;;;;;5038014;28;20129;-90
2022/07/01 02:16:51;;;;;;;6.70;2.03;;;;;;;;;;5037250;28;20017;-90
2022/07/01 02:19:17;;;;;;;6.90;2.33;;;;;;;;;;5033213;28;20033;-90
2022/07/01 02:21:43;;;;;;;3.55;2.08;;;;;;;;;;5035920;28;20032;-90
2022/07/01 02:24:10;;;;;;;5.93;2.25;;;;;;;;;;5053382;28;20048;-90
2022/07/01 02:26:36;;;;;;;8.15;2.03;;;;;;;;;;5051973;28;20028;-90
2022/07/01 02:29:02;;;;;;;3.28;1.90;;;;;;;;;;5045007;28;20032;-89
2022/07/01 02:31:28;;;;;;;3.83;1.65;;;;;;;;;;5059619;28;20055;-90
2022/07/01 02:33:54;;;;;;;4.15;1.50;;;;;;;;;;5033139;28;20595;-90
2022/07/01 02:36:20;;;;;;;2.33;1.30;;;;;;;;;;5038032;28;20021;-90
2022/07/01 02:38:46;;;;;;;5.38;1.75;;;;;;;;;;5032481;28;20029;-89
2022/07/01 02:41:12;;;;;;;5.68;1.85;;;;;;;;;;5036423;28;20047;-89
2022/07/01 02:43:38;;;;;;;2.20;1.60;;;;;;;;;;5034286;28;20025;-89
2022/07/01 02:46:04;;;;;;;2.58;1.73;;;;;;;;;;5035727;28;20030;-88
2022/07/01 02:48:30;;;;;;;4.30;2.30;;;;;;;;;;5033527;28;20152;-89
2022/07/01 02:50:56;;;;;;;3.90;1.92;;;;;;;;;;5038391;28;21637;-89
2022/07/01 02:53:22;;;;;;;3.28;1.98;;;;;;;;;;5038386;28;20040;-89
2022/07/01 02:55:48;;;;;;;5.10;1.90;;;;;;;;;;5030945;28;20025;-88
2022/07/01 02:58:14;;;;;;;7.90;2.40;;;;;;;;;;5035277;28;20073;-90
2022/07/01 03:00:40;;;;;;;3.13;2.10;;;;;;;;;;5033471;28;20038;-88
2022/07/01 03:03:06;;;;;;;3.78;2.17;;;;;;;;;;5033066;28;20044;-90
2022/07/01 03:05:32;;;;;;;4.90;2.63;;;;;;;;;;5035818;28;20033;-89
2022/07/01 03:07:58;;;;;;;7.70;2.70;;;;;;;;;;5033965;28;20489;-90
2022/07/01 03:10:24;;;;;;;7.65;2.30;;;;;;;;;;5032574;28;20043;-89
2022/07/01 03:12:51;;;;;;;7.32;2.60;;;;;;;;;;5035602;28;20030;-90
2022/07/01 03:15:17;;;;;;;4.68;2.75;;;;;;;;;;5030831;28;20082;-88
2022/07/01 03:17:44;;;;;;;5.22;2.55;;;;;;;;;;5032548;28;20037;-89
2022/07/01 03:20:12;;;;;;;3.90;2.15;;;;;;;;;;5039470;28;20128;-89
2022/07/01 03:22:38;;;;;;;4.75;2.63;;;;;;;;;;5029378;28;20041;-89
2022/07/01 03:25:05;;;;;;;7.80;2.80;;;;;;;;;;5037786;28;20421;-89
2022/07/01 03:27:31;;;;;;;4.03;2.63;;;;;;;;;;5037093;28;20040;-89
2022/07/01 03:29:57;;;;;;;6.88;2.88;;;;;;;;;;5036246;28;20028;-88
2022/07/01 03:32:24;;;;;;;7.90;2.95;;;;;;;;;;5031550;28;20037;-91
2022/07/01 03:34:51;;;;;;;8.60;2.80;;;;;;;;;;5037657;28;20052;-90
2022/07/01 03:37:18;;;;;;;7.32;3.40;;;;;;;;;;5041653;28;20032;-90
2022/07/01 03:39:44;;;;;;;7.70;3.13;;;;;;;;;;5038023;28;20072;-89
2022/07/01 03:42:11;;;;;;;11.00;3.20;;;;;;;;;;5037105;28;20032;-90
2022/07/01 03:44:37;;;;;;;5.55;3.05;;;;;;;;;;5035783;28;20112;-89
2022/07/01 03:47:05;;;;;;;3.80;2.70;;;;;;;;;;5039503;28;20025;-90
2022/07/01 03:49:32;;;;;;;8.32;2.60;;;;;;;;;;5037588;28;20110;-91
2022/07/01 03:51:58;;;;;;;5.97;2.65;;;;;;;;;;5035602;28;20635;-89
2022/07/01 03:54:30;;;;;;;9.85;3.13;;;;;;;;;;5039085;28;20064;-89
2022/07/01 03:57:00;;;;;;;10.85;2.95;;;;;;;;;;5034960;28;20041;-88
2022/07/01 03:59:26;;;;;;;5.60;2.92;;;;;;;;;;5028552;28;20032;-89
2022/07/01 04:01:53;;;;;;;6.07;2.63;;;;;;;;;;5023745;28;20024;-88
2022/07/01 04:04:19;;;;;;;9.57;2.95;;;;;;;;;;5024730;28;20779;-89
2022/07/01 04:06:46;;;;;;;4.25;3.35;;;;;;;;;;5021867;28;20120;-89
2022/07/01 04:09:13;;;;;;;6.93;3.17;;;;;;;;;;5021514;28;20029;-89
2022/07/01 04:11:40;;;;;;;13.00;3.75;;;;;;;;;;5018152;28;20029;-89
2022/07/01 04:14:06;;;;;;;5.45;3.42;;;;;;;;;;5026316;28;20504;-90
2022/07/01 04:16:32;;;;;;;8.45;3.33;;;;;;;;;;5021356;28;20041;-90
2022/07/01 04:18:58;;;;;;;8.90;3.53;;;;;;;;;;5017140;28;20053;-90
2022/07/01 04:24:09;;;;;;;7.88;3.15;;;;;;;;;;5039670;28;20047;-91
2022/07/01 04:26:35;;;;;;;9.73;3.30;;;;;;;;;;5019755;28;20307;-89
2022/07/01 04:29:01;;;;;;;7.47;3.63;;;;;;;;;;5024540;28;20018;-89
2022/07/01 04:31:28;;;;;;;4.28;2.80;;;;;;;;;;5021017;28;20017;-90
2022/07/01 04:33:54;;;;;;;13.20;4.00;;;;;;;;;;5025073;28;20044;-88
2022/07/01 04:36:20;;;;;;;6.25;3.83;;;;;;;;;;5024727;28;20056;-87
2022/07/01 04:38:46;;;;;;;5.90;2.88;;;;;;;;;;5020182;28;20033;-89
2022/07/01 04:43:57;;;;;;;10.23;4.28;;;;;;;;;;5039271;28;20051;-89
2022/07/01 04:46:23;;;;;;;4.90;2.92;;;;;;;;;;5016251;28;20538;-88
2022/07/01 04:48:49;;;;;;;7.07;3.90;;;;;;;;;;5033528;28;20029;-89
2022/07/01 04:51:15;;;;;;;6.32;4.25;;;;;;;;;;5019558;28;20029;-87
2022/07/01 04:53:41;;;;;;;9.23;4.28;;;;;;;;;;5018359;28;20432;-91
2022/07/01 04:56:07;;;;;;;6.10;3.75;;;;;;;;;;5023451;28;20042;-89
2022/07/01 04:58:33;;;;;;;7.88;4.47;;;;;;;;;;5018280;28;20029;-88
2022/07/01 05:00:59;;;;;;;10.30;4.35;;;;;;;;;;5018669;28;20128;-88
2022/07/01 05:03:25;;;;;;;6.90;4.20;;;;;;;;;;5017974;28;20116;-88
2022/07/01 05:05:51;;;;;;;6.88;4.05;;;;;;;;;;5021653;28;20036;-89
2022/07/01 05:08:17;;;;;;;8.27;4.30;;;;;;;;;;5022267;28;20044;-88
2022/07/01 05:10:43;;;;;;;13.15;5.15;;;;;;;;;;5020945;28;20021;-88
2022/07/01 05:13:09;;;;;;;7.95;4.63;;;;;;;;;;5022922;28;20063;-88
2022/07/01 05:15:35;;;;;;;12.98;4.20;;;;;;;;;;5021663;28;20037;-89
2022/07/01 05:23:30;;;;;;;14.60;5.90;;;;;;;;;;5034114;28;20052;-88
2022/07/01 05:25:56;;;;;;;11.82;6.00;;;;;;;;;;5016506;28;20029;-88
2022/07/01 05:28:22;;;;;;;9.40;5.72;;;;;;;;;;5016661;28;20738;-89
2022/07/01 05:30:48;;;;;;;17.38;6.85;;;;;;;;;;5014721;28;20036;-88
2022/07/01 05:33:15;;;;;;;16.25;9.15;;;;;;;;;;5016330;28;20136;-89
2022/07/01 05:35:41;;;;;;;14.02;7.65;;;;;;;;;;5024894;28;20036;-89
2022/07/01 05:38:07;;;;;;;18.83;9.52;;;;;;;;;;5016072;28;20033;-89
2022/07/01 05:40:33;;;;;;;19.00;9.63;;;;;;;;;;5019387;28;20046;-89
2022/07/01 05:42:59;;;;;;;19.05;8.93;;;;;;;;;;5019333;28;20080;-89
2022/07/01 05:45:25;;;;;;;28.25;10.00;;;;;;;;;;5015334;28;20030;-87
2022/07/01 05:47:51;;;;;;;22.55;9.93;;;;;;;;;;5018480;28;20037;-88
2022/07/01 05:50:17;;;;;;;23.77;11.07;;;;;;;;;;5016688;28;20542;-88
2022/07/01 05:52:44;;;;;;;22.58;11.20;;;;;;;;;;5014150;28;20033;-88
2022/07/01 05:55:10;;;;;;;26.42;10.55;;;;;;;;;;5035455;28;20031;-87
2022/07/01 05:57:36;;;;;;;21.67;12.18;;;;;;;;;;5034493;28;20441;-89
2022/07/01 06:00:03;;;;;;;23.05;12.07;;;;;;;;;;5041232;28;20106;-89
2022/07/01 06:02:29;;;;;;;29.52;13.82;;;;;;;;;;5053651;28;20029;-90
2022/07/01 06:04:56;;;;;;;24.77;13.13;;;;;;;;;;5059832;28;20028;-88
2022/07/01 06:07:21;;;;;;;22.63;12.40;;;;;;;;;;5037407;28;20037;-89
2022/07/01 06:09:47;;;;;;;18.55;11.45;;;;;;;;;;5034708;28;20035;-89
2022/07/01 06:12:13;;;;;;;23.95;11.15;;;;;;;;;;5033096;28;20029;-89
2022/07/01 06:14:39;;;;;;;32.28;13.18;;;;;;;;;;5040469;28;20028;-89
2022/07/01 06:17:05;;;;;;;29.60;12.82;;;;;;;;;;5035581;28;20029;-90
2022/07/01 06:19:31;;;;;;;18.25;10.25;;;;;;;;;;5040663;28;20021;-90
2022/07/01 06:21:57;;;;;;;15.45;7.80;;;;;;;;;;5038876;28;20040;-89
2022/07/01 06:24:24;;;;;;;20.42;11.60;;;;;;;;;;5055983;28;20064;-89
2022/07/01 06:26:50;;;;;;;24.67;12.80;;;;;;;;;;5042067;28;20130;-89
2022/07/01 06:29:16;;;;;;;21.52;10.95;;;;;;;;;;5036085;28;20125;-90
2022/07/01 06:31:42;;;;;;;25.00;12.68;;;;;;;;;;5041429;28;20107;-90
2022/07/01 06:34:08;;;;;;;28.95;14.85;;;;;;;;;;5037004;28;20407;-89
2022/07/01 06:36:34;;;;;;;27.10;12.10;;;;;;;;;;5040991;28;20063;-89
2022/07/01 06:39:00;;;;;;;22.98;12.02;;;;;;;;;;5037174;28;20094;-88
2022/07/01 06:41:26;;;;;;;34.67;13.52;;;;;;;;;;5037423;28;20411;-88
2022/07/01 06:43:53;;;;;;;26.15;13.23;;;;;;;;;;5038150;28;20404;-88
2022/07/01 06:46:19;;;;;;;25.75;12.63;;;;;;;;;;5031521;28;20053;-88
2022/07/01 06:48:45;;;;;;;22.90;13.18;;;;;;;;;;5029085;28;20559;-89
2022/07/01 06:51:11;;;;;;;23.20;13.65;;;;;;;;;;5037175;28;20083;-88
2022/07/01 06:53:38;;;;;;;20.95;12.27;;;;;;;;;;5036615;28;20043;-89
2022/07/01 06:56:04;;;;;;;24.33;11.73;;;;;;;;;;5039705;28;20552;-89
2022/07/01 06:58:37;;;;;;;18.38;9.57;;;;;;;;;;5032495;28;20691;-89
2022/07/01 07:01:03;;;;;;;23.90;12.95;;;;;;;;;;5038167;28;20067;-89
2022/07/01 07:03:29;;;;;;;27.73;13.90;;;;;;;;;;5042088;28;20120;-90
2022/07/01 07:05:55;;;;;;;27.80;12.50;;;;;;;;;;5038122;28;20484;-88
2022/07/01 07:08:21;;;;;;;28.33;13.27;;;;;;;;;;5041096;28;20068;-88
2022/07/01 07:10:47;;;;;;;27.13;13.73;;;;;;;;;;5042375;28;20021;-88
2022/07/01 07:13:13;;;;;;;26.30;14.20;;;;;;;;;;5039564;28;20711;-88
2022/07/01 07:15:41;;;;;;;24.02;13.85;;;;;;;;;;5038354;28;20036;-88
2022/07/01 07:18:07;;;;;;;27.98;14.60;;;;;;;;;;5038975;28;20033;-88
2022/07/01 07:20:33;;;;;;;23.73;13.32;;;;;;;;;;5041599;28;20025;-89
2022/07/01 07:23:00;;;;;;;24.05;12.63;;;;;;;;;;5039881;28;20168;-88
2022/07/01 07:25:27;;;;;;;25.20;14.23;;;;;;;;;;5040518;28;20480;-89
2022/07/01 07:27:53;;;;;;;24.38;13.23;;;;;;;;;;5039064;28;20079;-88
2022/07/01 07:30:19;;;;;;;24.38;15.00;;;;;;;;;;5039838;28;20032;-88
2022/07/01 07:32:45;;;;;;;22.50;12.70;;;;;;;;;;5037078;28;20057;-89
2022/07/01 07:35:12;;;;;;;27.65;14.38;;;;;;;;;;5038045;28;20036;-89
2022/07/01 07:37:45;;;;;;;30.00;12.38;;;;;;;;;;5037365;28;20041;-89
2022/07/01 07:40:12;;;;;;;26.45;15.18;;;;;;;;;;5040179;28;20033;-87
2022/07/01 07:42:41;;;;;;;23.95;13.68;;;;;;;;;;5039167;28;20037;-88
2022/07/01 07:45:08;;;;;;;25.83;13.85;;;;;;;;;;5037420;28;20029;-87
2022/07/01 07:47:34;;;;;;;26.37;13.80;;;;;;;;;;5038052;28;20018;-89
2022/07/01 07:50:00;;;;;;;21.60;13.93;;;;;;;;;;5037445;28;20485;-87
2022/07/01 07:52:27;;;;;;;20.70;10.82;;;;;;;;;;5035786;28;20520;-87
2022/07/01 07:54:53;;;;;;;27.85;13.90;;;;;;;;;;5033637;28;20030;-88
2022/07/01 07:57:19;;;;;;;24.02;13.43;;;;;;;;;;5037905;28;20116;-87
2022/07/01 07:59:45;;;;;;;24.85;11.90;;;;;;;;;;5039522;28;20038;-87
2022/07/01 08:02:11;;;;;;;30.35;11.77;;;;;;;;;;5036739;28;20037;-87
2022/07/01 08:04:37;;;;;;;24.58;11.23;;;;;;;;;;5038060;28;20064;-86
2022/07/01 08:07:03;;;;;;;23.13;13.50;;;;;;;;;;5032990;28;20038;-86
2022/07/01 08:09:29;;;;;;;18.63;11.68;;;;;;;;;;5031692;28;20475;-87
2022/07/01 08:11:55;;;;;;;25.08;12.18;;;;;;;;;;5032546;28;20500;-87
2022/07/01 08:14:21;;;;;;;20.42;11.60;;;;;;;;;;5032534;28;20033;-87
2022/07/01 08:16:47;;;;;;;19.17;10.93;;;;;;;;;;5034302;28;20531;-87
2022/07/01 08:19:13;;;;;;;21.05;10.98;;;;;;;;;;5031964;28;20032;-87
2022/07/01 08:21:39;;;;;;;22.38;11.80;;;;;;;;;;5031117;28;20033;-87
2022/07/01 08:24:05;;;;;;;24.30;11.02;;;;;;;;;;5033381;28;20107;-88
2022/07/01 08:26:31;;;;;;;22.00;12.02;;;;;;;;;;5035474;28;22115;-88
2022/07/01 08:28:57;;;;;;;21.80;11.75;;;;;;;;;;5032954;28;20028;-87
2022/07/01 08:31:23;;;;;;;24.30;11.55;;;;;;;;;;5039191;28;20033;-88
2022/07/01 08:33:49;;;;;;;21.08;11.80;;;;;;;;;;5031009;28;20037;-87
2022/07/01 08:36:15;;;;;;;18.15;10.55;;;;;;;;;;5036079;28;20444;-87
2022/07/01 08:38:41;;;;;;;18.60;10.90;;;;;;;;;;5036242;28;20045;-88
2022/07/01 08:41:07;;;;;;;24.13;12.13;;;;;;;;;;5035760;28;20497;-88
2022/07/01 08:43:34;;;;;;;24.30;10.93;;;;;;;;;;5032541;28;20485;-88
2022/07/01 08:46:01;;;;;;;14.75;10.05;;;;;;;;;;5033506;28;20091;-88
2022/07/01 08:48:27;;;;;;;16.80;8.57;;;;;;;;;;5035924;28;20033;-88
2022/07/01 08:50:53;;;;;;;14.90;7.70;;;;;;;;;;5035411;28;20480;-88
2022/07/01 08:53:19;;;;;;;15.23;8.32;;;;;;;;;;5038757;28;20037;-88
2022/07/01 08:58:30;;;;;;;15.35;7.05;;;;;;;;;;5033906;28;20519;-89
2022/07/01 09:01:12;;;;;;;13.77;6.63;;;;;;;;;;5034266;28;20124;-90
2022/07/01 09:03:38;;;;;;;11.50;5.70;;;;;;;;;;5035036;28;20724;-88
2022/07/01 09:06:11;;;;;;;12.98;5.38;;;;;;;;;;5039640;28;20057;-90
2022/07/01 09:08:37;;;;;;;13.70;4.70;;;;;;;;;;5033672;28;20021;-90
2022/07/01 09:11:11;;;;;;;5.35;4.18;;;;;;;;;;5039037;28;20044;-90
2022/07/01 09:13:37;;;;;;;11.13;4.38;;;;;;;;;;5036324;28;20033;-90
2022/07/01 09:16:10;;;;;;;14.32;5.57;;;;;;;;;;5031165;28;20035;-90
2022/07/01 09:18:36;;;;;;;11.77;3.80;;;;;;;;;;5033510;28;20109;-89
2022/07/01 09:21:08;;;;;;;5.35;3.35;;;;;;;;;;5035103;28;20064;-90
2022/07/01 09:23:34;;;;;;;8.63;4.45;;;;;;;;;;5037547;28;20031;-91
2022/07/01 09:26:01;;;;;;;11.25;4.72;;;;;;;;;;5035370;28;20038;-89
2022/07/01 09:28:27;;;;;;;8.18;4.80;;;;;;;;;;5029818;28;20289;-90
2022/07/01 09:30:54;;;;;;;9.18;5.07;;;;;;;;;;5034149;28;20412;-90
2022/07/01 09:33:28;;;;;;;11.70;5.15;;;;;;;;;;5027756;28;20048;-90
2022/07/01 09:35:55;;;;;;;9.95;5.07;;;;;;;;;;5036954;28;20026;-90
2022/07/01 09:38:22;;;;;;;8.85;4.78;;;;;;;;;;5034700;28;20029;-91
2022/07/01 09:40:48;;;;;;;11.73;4.45;;;;;;;;;;5040606;28;20106;-91
2022/07/01 09:43:18;;;;;;;10.73;4.25;;;;;;;;;;5031436;28;20029;-90
2022/07/01 09:45:57;;;;;;;8.45;4.22;;;;;;;;;;5040889;28;20060;-90
2022/07/01 09:48:24;;;;;;;7.38;4.68;;;;;;;;;;5033582;28;20585;-90
2022/07/01 09:50:51;;;;;;;6.70;3.45;;;;;;;;;;5038666;28;20038;-91
2022/07/01 09:53:17;;;;;;;10.07;5.00;;;;;;;;;;5033994;28;20651;-89
2022/07/01 09:55:43;;;;;;;8.77;4.38;;;;;;;;;;5039529;28;20053;-90
2022/07/01 09:58:09;;;;;;;9.50;4.28;;;;;;;;;;5034437;28;22465;-91
2022/07/01 10:00:36;;;;;;;10.70;3.35;;;;;;;;;;5033248;28;20048;-89
2022/07/01 10:03:03;;;;;;;5.22;3.22;;;;;;;;;;5032759;28;20164;-90
2022/07/01 10:05:30;;;;;;;4.30;2.60;;;;;;;;;;5033378;28;20064;-90
2022/07/01 10:08:15;;;;;;;6.93;2.85;;;;;;;;;;5032141;28;20095;-90
2022/07/01 10:10:51;;;;;;;6.85;2.53;;;;;;;;;;5039834;28;20024;-90
2022/07/01 10:13:18;;;;;;;7.78;2.58;;;;;;;;;;5036195;28;20029;-90
2022/07/01 10:15:45;;;;;;;10.25;2.70;;;;;;;;;;5033514;28;20037;-90
2022/07/01 10:18:40;;;;;;;8.55;2.80;;;;;;;;;;5031490;28;20033;-90
2022/07/01 10:21:06;;;;;;;8.50;3.47;;;;;;;;;;5018992;28;20045;-89
2022/07/01 10:23:45;;;;;;;8.30;3.22;;;;;;;;;;5036407;28;20025;-89
2022/07/01 10:26:12;;;;;;;7.35;4.95;;;;;;;;;;5036204;28;20041;-90
2022/07/01 10:28:45;;;;;;;13.57;3.45;;;;;;;;;;5032212;28;20672;-90
2022/07/01 10:31:21;;;;;;;6.95;3.00;;;;;;;;;;5035292;28;21014;-90
2022/07/01 10:33:47;;;;;;;;;;;;;;;;;;5033177;28;20037;-89
2022/07/01 10:36:19;;;;;;;14.38;3.30;;;;;;;;;;5038928;28;19909;-91
2022/07/01 10:39:06;;;;;;;7.47;3.05;;;;;;;;;;5032382;28;20022;-88
2022/07/01 10:41:36;;;;;;;8.70;3.40;;;;;;;;;;5036843;28;20124;-89
2022/07/01 10:44:05;;;;;;;8.57;2.55;;;;;;;;;;5036874;28;20037;-89
2022/07/01 10:46:56;;;;;;;11.82;2.97;;;;;;;;;;5031500;28;20435;-90
2022/07/01 10:49:40;;;;;;;8.25;2.92;;;;;;;;;;5033482;28;20128;-89
2022/07/01 10:52:16;;;;;;;6.57;2.97;;;;;;;;;;5035065;28;20033;-90
2022/07/01 10:54:45;;;;;;;6.40;2.72;;;;;;;;;;5037672;28;20575;-89
2022/07/01 10:57:22;;;;;;;4.93;2.95;;;;;;;;;;5030508;28;20116;-89
2022/07/01 10:59:49;;;;;;;7.68;3.40;;;;;;;;;;5034896;28;20033;-89
2022/07/01 11:02:17;;;;;;;8.80;3.28;;;;;;;;;;5036071;28;20132;-90
2022/07/01 11:04:43;;;;;;;5.13;3.10;;;;;;;;;;5032674;28;20059;-90
2022/07/01 11:07:09;;;;;;;6.88;3.70;;;;;;;;;;5034373;28;20456;-91
2022/07/01 11:09:36;;;;;;;9.32;3.55;;;;;;;;;;5034970;28;20084;-91
2022/07/01 11:12:02;;;;;;;7.93;3.17;;;;;;;;;;5028600;28;20045;-90
2022/07/01 11:14:29;;;;;;;6.15;3.47;;;;;;;;;;5035404;28;20079;-89
2022/07/01 11:16:57;;;;;;;5.22;2.90;;;;;;;;;;5035540;28;20030;-90
2022/07/01 11:19:24;;;;;;;6.47;2.75;;;;;;;;;;5036832;28;20064;-90
2022/07/01 11:21:50;;;;;;;7.68;2.50;;;;;;;;;;5033380;28;20981;-91
2022/07/01 11:24:23;;;;;;;5.05;2.10;;;;;;;;;;5032304;28;20057;-90
2022/07/01 11:26:49;;;;;;;7.10;2.65;;;;;;;;;;5034506;28;20029;-91
2022/07/01 11:29:16;;;;;;;10.63;3.00;;;;;;;;;;5032433;28;20915;-89
2022/07/01 11:31:42;;;;;;;7.47;1.90;;;;;;;;;;5034747;28;20064;-90
2022/07/01 11:34:14;;;;;;;3.63;1.58;;;;;;;;;;5032935;28;20076;-90
2022/07/01 11:39:32;;;;;;;6.82;1.55;;;;;;;;;;5033731;28;21580;-90
2022/07/01 11:42:00;;;;;;;5.10;1.20;;;;;;;;;;5032897;28;20052;-90
2022/07/01 11:44:40;;;;;;;6.70;1.33;;;;;;;;;;5033405;28;20052;-90
2022/07/01 11:47:07;;;;;;;4.80;1.05;;;;;;;;;;5018229;28;20047;-90
2022/07/01 11:49:33;;;;;;;4.35;1.67;;;;;;;;;;5020540;28;20037;-90
2022/07/01 11:52:01;;;;;;;5.05;1.30;;;;;;;;;;5038448;28;20087;-90
2022/07/01 11:54:28;;;;;;;1.77;0.95;;;;;;;;;;5020798;28;20025;-91
2022/07/01 11:56:54;;;;;;;3.05;1.90;;;;;;;;;;5025180;28;20037;-90
2022/07/01 11:59:20;;;;;;;4.40;1.15;;;;;;;;;;5021087;28;20128;-90
2022/07/01 12:01:54;;;;;;;3.35;0.90;;;;;;;;;;5017307;28;20124;-90
2022/07/01 12:04:21;;;;;;;4.28;1.23;;;;;;;;;;5014617;28;20034;-90
2022/07/01 12:06:47;;;;;;;4.57;1.17;;;;;;;;;;5022935;28;20133;-91
2022/07/01 12:09:17;;;;;;;5.00;1.17;;;;;;;;;;5038154;28;20035;-90
2022/07/01 12:11:47;;;;;;;6.75;1.58;;;;;;;;;;5038002;28;20341;-91
2022/07/01 12:14:19;;;;;;;7.72;1.23;;;;;;;;;;5017491;28;20389;-91
2022/07/01 12:16:45;;;;;;;7.50;1.60;;;;;;;;;;5020238;28;20120;-91
2022/07/01 12:19:12;;;;;;;4.47;1.67;;;;;;;;;;5017850;28;20120;-88
2022/07/01 12:21:51;;;;;;;6.97;2.00;;;;;;;;;;5036891;28;20102;-91
2022/07/01 12:24:19;;;;;;;3.80;1.55;;;;;;;;;;5018294;28;20116;-91
2022/07/01 12:26:53;;;;;;;4.90;1.60;;;;;;;;;;5019698;28;20650;-90
2022/07/01 12:29:20;;;;;;;3.03;1.48;;;;;;;;;;5019502;28;20033;-90
2022/07/01 12:32:01;;;;;;;5.70;1.30;;;;;;;;;;5016231;28;20095;-91
2022/07/01 12:34:50;;;;;;;3.17;1.40;;;;;;;;;;5018261;28;20041;-90
2022/07/01 12:37:32;;;;;;;6.78;1.50;;;;;;;;;;5028128;28;20326;-91
2022/07/01 12:40:02;;;;;;;2.05;1.60;;;;;;;;;;5051237;28;20088;-91
2022/07/01 12:42:28;;;;;;;3.20;1.30;;;;;;;;;;5031864;28;20171;-90
2022/07/01 12:44:55;;;;;;;7.03;1.58;;;;;;;;;;5045441;28;20098;-90
2022/07/01 12:47:29;;;;;;;5.10;1.88;;;;;;;;;;5038303;28;20031;-91
2022/07/01 12:50:10;;;;;;;6.20;1.65;;;;;;;;;;5041363;28;20099;-92
2022/07/01 12:52:38;;;;;;;4.75;1.55;;;;;;;;;;5037080;28;20029;-90
2022/07/01 12:55:20;;;;;;;8.13;2.08;;;;;;;;;;5037532;28;20052;-90
2022/07/01 12:58:05;;;;;;;6.07;1.65;;;;;;;;;;5037000;28;20095;-90
2022/07/01 13:00:31;;;;;;;7.28;1.67;;;;;;;;;;5035732;28;20033;-90
2022/07/01 13:02:59;;;;;;;4.78;1.58;;;;;;;;;;5034422;28;20657;-91
2022/07/01 13:05:25;;;;;;;3.05;1.10;;;;;;;;;;5038783;28;20182;-91
2022/07/01 13:07:51;;;;;;;5.50;1.35;;;;;;;;;;5038756;28;20021;-91
2022/07/01 13:10:24;;;;;;;2.65;1.08;;;;;;;;;;5038527;28;20028;-90
2022/07/01 13:12:50;;;;;;;2.47;1.35;;;;;;;;;;5043931;28;20025;-90
2022/07/01 13:15:17;;;;;;;7.40;1.17;;;;;;;;;;5038814;28;20116;-91
2022/07/01 13:17:44;;;;;;;3.78;0.93;;;;;;;;;;5039827;28;20020;-89
2022/07/01 13:20:10;;;;;;;4.65;1.30;;;;;;;;;;5043717;28;20036;-90
2022/07/01 13:22:36;;;;;;;8.07;1.27;;;;;;;;;;5035289;28;20488;-91
2022/07/01 13:25:03;;;;;;;3.20;0.98;;;;;;;;;;5040660;28;20115;-91
2022/07/01 13:27:29;;;;;;;7.78;2.20;;;;;;;;;;5030397;28;20025;-92
2022/07/01 13:29:56;;;;;;;2.85;1.10;;;;;;;;;;5037682;28;20159;-91
2022/07/01 13:32:22;;;;;;;5.10;1.02;;;;;;;;;;5037846;28;20078;-91
2022/07/01 13:34:55;;;;;;;5.28;1.10;;;;;;;;;;5031525;28;20045;-90
2022/07/01 13:37:21;;;;;;;9.25;1.55;;;;;;;;;;5034590;28;20108;-91
2022/07/01 13:39:47;;;;;;;4.63;1.00;;;;;;;;;;5032685;28;20033;-90
2022/07/01 13:42:13;;;;;;;3.15;1.23;;;;;;;;;;5032324;28;20103;-91
2022/07/01 13:44:39;;;;;;;3.13;1.13;;;;;;;;;;5034118;28;20037;-91
2022/07/01 13:47:09;;;;;;;2.80;0.90;;;;;;;;;;5031047;28;20226;-91
2022/07/01 13:49:35;;;;;;;8.27;1.10;;;;;;;;;;5033940;28;20053;-92
2022/07/01 13:52:01;;;;;;;5.25;1.25;;;;;;;;;;5032884;28;20462;-90
2022/07/01 13:54:27;;;;;;;4.40;1.23;;;;;;;;;;5032378;28;20038;-90
2022/07/01 13:56:53;;;;;;;10.48;1.38;;;;;;;;;;5035098;28;21101;-91
2022/07/01 13:59:19;;;;;;;3.70;1.45;;;;;;;;;;5039506;28;20029;-92
2022/07/01 14:01:45;;;;;;;4.13;1.77;;;;;;;;;;5033561;28;20091;-91
2022/07/01 14:04:12;;;;;;;8.88;2.45;;;;;;;;;;5036832;28;20021;-91
2022/07/01 14:06:38;;;;;;;0.93;0.80;;;;;;;;;;5034162;28;20075;-90
2022/07/01 14:09:04;;;;;;;1.63;0.85;;;;;;;;;;5036666;28;20037;-91
2022/07/01 14:11:33;;;;;;;2.40;0.70;;;;;;;;;;5033659;28;20057;-91
2022/07/01 14:13:59;;;;;;;1.60;0.88;;;;;;;;;;5033932;28;20025;-92
2022/07/01 14:16:29;;;;;;;3.33;1.15;;;;;;;;;;5033701;28;20032;-91
2022/07/01 14:18:55;;;;;;;3.22;1.20;;;;;;;;;;5032353;28;20038;-91
2022/07/01 14:21:21;;;;;;;8.18;1.20;;;;;;;;;;5033721;28;20033;-92
2022/07/01 14:23:47;;;;;;;3.58;0.93;;;;;;;;;;5035753;28;20025;-92
2022/07/01 14:26:13;;;;;;;2.88;1.13;;;;;;;;;;5035278;28;20037;-92
2022/07/01 14:28:39;;;;;;;2.45;0.77;;;;;;;;;;5034740;28;20112;-91
2022/07/01 14:31:13;;;;;;;4.10;0.90;;;;;;;;;;5018502;28;20061;-91
2022/07/01 14:33:39;;;;;;;3.53;1.13;;;;;;;;;;5025605;28;20113;-91
2022/07/01 14:36:18;;;;;;;2.72;0.93;;;;;;;;;;5019356;28;20091;-91
2022/07/01 14:38:44;;;;;;;3.22;1.00;;;;;;;;;;5033240;28;20536;-91
2022/07/01 14:41:10;;;;;;;3.47;0.85;;;;;;;;;;5015408;28;20026;-91
2022/07/01 14:43:38;;;;;;;3.85;1.02;;;;;;;;;;5014704;28;20096;-91
2022/07/01 14:46:08;;;;;;;1.27;0.60;;;;;;;;;;5014200;28;20045;-92
2022/07/01 14:48:38;;;;;;;3.63;0.90;;;;;;;;;;5013081;28;20088;-92
2022/07/01 14:51:05;;;;;;;7.25;2.22;;;;;;;;;;5020751;28;20021;-91
2022/07/01 14:53:31;;;;;;;4.68;1.30;;;;;;;;;;5017821;28;20485;-89
2022/07/01 14:55:57;;;;;;;4.82;1.05;;;;;;;;;;5020685;28;20049;-91